地図

経路データ

SID SEASON NUMBER BASIN SUBBASIN NAME ISO_TIME NATURE LAT LON WMO_WIND WMO_PRES WMO_AGENCY TRACK_TYPE DIST2LAND LANDFALL IFLAG USA_AGENCY USA_ATCF_ID USA_LAT USA_LON USA_RECORD USA_STATUS USA_WIND USA_PRES USA_SSHS USA_R34_NE USA_R34_SE USA_R34_SW USA_R34_NW USA_R50_NE USA_R50_SE USA_R50_SW USA_R50_NW USA_R64_NE USA_R64_SE USA_R64_SW USA_R64_NW USA_POCI USA_ROCI USA_RMW USA_EYE TOKYO_LAT TOKYO_LON TOKYO_GRADE TOKYO_WIND TOKYO_PRES TOKYO_R50_DIR TOKYO_R50_LONG TOKYO_R50_SHORT TOKYO_R30_DIR TOKYO_R30_LONG TOKYO_R30_SHORT TOKYO_LAND CMA_LAT CMA_LON CMA_CAT CMA_WIND CMA_PRES HKO_LAT HKO_LON HKO_CAT HKO_WIND HKO_PRES NEWDELHI_LAT NEWDELHI_LON NEWDELHI_GRADE NEWDELHI_WIND NEWDELHI_PRES NEWDELHI_CI NEWDELHI_DP NEWDELHI_POCI REUNION_LAT REUNION_LON REUNION_TYPE REUNION_WIND REUNION_PRES REUNION_TNUM REUNION_CI REUNION_RMW REUNION_R34_NE REUNION_R34_SE REUNION_R34_SW REUNION_R34_NW REUNION_R50_NE REUNION_R50_SE REUNION_R50_SW REUNION_R50_NW REUNION_R64_NE REUNION_R64_SE REUNION_R64_SW REUNION_R64_NW BOM_LAT BOM_LON BOM_TYPE BOM_WIND BOM_PRES BOM_TNUM BOM_CI BOM_RMW BOM_R34_NE BOM_R34_SE BOM_R34_SW BOM_R34_NW BOM_R50_NE BOM_R50_SE BOM_R50_SW BOM_R50_NW BOM_R64_NE BOM_R64_SE BOM_R64_SW BOM_R64_NW BOM_ROCI BOM_POCI BOM_EYE BOM_POS_METHOD BOM_PRES_METHOD NADI_LAT NADI_LON NADI_CAT NADI_WIND NADI_PRES WELLINGTON_LAT WELLINGTON_LON WELLINGTON_WIND WELLINGTON_PRES DS824_LAT DS824_LON DS824_STAGE DS824_WIND DS824_PRES TD9636_LAT TD9636_LON TD9636_STAGE TD9636_WIND TD9636_PRES TD9635_LAT TD9635_LON TD9635_WIND TD9635_PRES TD9635_ROCI NEUMANN_LAT NEUMANN_LON NEUMANN_CLASS NEUMANN_WIND NEUMANN_PRES MLC_LAT MLC_LON MLC_CLASS MLC_WIND MLC_PRES USA_GUST BOM_GUST BOM_GUST_PER REUNION_GUST REUNION_GUST_PER USA_SEAHGT USA_SEARAD_NE USA_SEARAD_SE USA_SEARAD_SW USA_SEARAD_NW STORM_SPEED STORM_DIR
1930177N11136 1930 26 WP MM NOT_NAMED 1930-06-26 10:00:00 NR 11.3000 136.000 main 1098 1077 __________O___ -1 11.3000 136.000 7 5 277
1930177N11136 1930 26 WP MM NOT_NAMED 1930-06-26 12:00:00 NR 11.3196 135.843 main 1077 1058 __________P___ -1 11.3196 135.843 7 5 279
1930177N11136 1930 26 WP MM NOT_NAMED 1930-06-26 15:00:00 NR 11.3604 135.591 main 1058 1026 __________P___ -1 11.3604 135.591 7 5 282
1930177N11136 1930 26 WP MM NOT_NAMED 1930-06-26 18:00:00 NR 11.4305 135.298 main 1026 986 __________P___ -1 11.4305 135.298 7 7 286
1930177N11136 1930 26 WP MM NOT_NAMED 1930-06-26 21:00:00 NR 11.5475 134.939 main 986 978 __________P___ -1 11.5475 134.939 7 8 289
1930177N11136 1930 26 WP MM NOT_NAMED 1930-06-26 22:00:00 NR 11.6000 134.800 main 978 950 __________O___ -1 11.6000 134.800 7 9 292
1930177N11136 1930 26 WP MM NOT_NAMED 1930-06-27 00:00:00 NR 11.7270 134.491 main 950 899 __________P___ -1 11.7270 134.491 7 11 294
1930177N11136 1930 26 WP MM NOT_NAMED 1930-06-27 03:00:00 NR 11.9615 133.971 main 901 839 __________P___ -1 11.9615 133.971 7 12 296
1930177N11136 1930 26 WP MM NOT_NAMED 1930-06-27 06:00:00 NR 12.2291 133.418 main 839 791 __________P___ -1 12.2291 133.418 7 12 297
1930177N11136 1930 26 WP MM NOT_NAMED 1930-06-27 09:00:00 NR 12.5082 132.873 main 791 772 __________P___ -1 12.5082 132.873 7 12 298
1930177N11136 1930 26 WP MM NOT_NAMED 1930-06-27 10:00:00 NR 12.6000 132.700 main 772 743 __________O___ -1 12.6000 132.700 7 11 299
1930177N11136 1930 26 WP MM NOT_NAMED 1930-06-27 12:00:00 NR 12.7664 132.391 main 746 710 __________P___ -1 12.7664 132.391 7 10 300
1930177N11136 1930 26 WP MM NOT_NAMED 1930-06-27 15:00:00 NR 13.0161 131.953 main 710 662 __________P___ -1 13.0161 131.953 7 10 301
1930177N11136 1930 26 WP MM NOT_NAMED 1930-06-27 18:00:00 NR 13.2662 131.537 main 662 624 __________P___ -1 13.2662 131.537 7 9 302
1930177N11136 1930 26 WP MM NOT_NAMED 1930-06-27 21:00:00 NR 13.5165 131.133 main 624 616 __________P___ -1 13.5165 131.133 7 9 303
1930177N11136 1930 26 WP MM NOT_NAMED 1930-06-27 22:00:00 NR 13.6000 131.000 main 616 591 __________O___ -1 13.6000 131.000 7 9 302
1930177N11136 1930 26 WP MM NOT_NAMED 1930-06-28 00:00:00 NR 13.7638 130.733 main 591 557 __________P___ -1 13.7638 130.733 7 9 303
1930177N11136 1930 26 WP MM NOT_NAMED 1930-06-28 03:00:00 NR 14.0096 130.338 main 557 531 __________P___ -1 14.0096 130.338 7 9 303
1930177N11136 1930 26 WP MM NOT_NAMED 1930-06-28 06:00:00 NR 14.2583 129.943 main 531 503 __________P___ -1 14.2583 129.943 7 9 303
1930177N11136 1930 26 WP MM NOT_NAMED 1930-06-28 09:00:00 NR 14.5132 129.539 main 503 500 __________P___ -1 14.5132 129.539 7 9 303
1930177N11136 1930 26 WP MM NOT_NAMED 1930-06-28 10:00:00 NR 14.6000 129.400 main 500 479 __________O___ -1 14.6000 129.400 7 10 301
1930177N11136 1930 26 WP MM NOT_NAMED 1930-06-28 12:00:00 NR 14.7725 129.090 main 486 458 __________P___ -1 14.7725 129.090 7 11 300
1930177N11136 1930 26 WP MM NOT_NAMED 1930-06-28 15:00:00 NR 15.0375 128.613 main 458 428 __________P___ -1 15.0375 128.613 7 11 301
1930177N11136 1930 26 WP MM NOT_NAMED 1930-06-28 18:00:00 NR 15.3125 128.148 main 428 402 __________P___ -1 15.3125 128.148 7 10 303
1930177N11136 1930 26 WP MM NOT_NAMED 1930-06-28 21:00:00 NR 15.6005 127.726 main 402 398 __________P___ -1 15.6005 127.726 7 10 306
1930177N11136 1930 26 WP MM NOT_NAMED 1930-06-28 22:00:00 NR 15.7000 127.600 main 398 392 __________O___ -1 15.7000 127.600 7 9 314
1930177N11136 1930 26 WP MM NOT_NAMED 1930-06-29 00:00:00 NR 15.9074 127.392 main 392 387 __________P___ -1 15.9074 127.392 7 8 320
1930177N11136 1930 26 WP MM NOT_NAMED 1930-06-29 03:00:00 NR 16.2316 127.132 main 387 387 __________P___ -1 16.2316 127.132 7 8 324
1930177N11136 1930 26 WP MM NOT_NAMED 1930-06-29 06:00:00 NR 16.5631 126.905 main 403 403 __________P___ -1 16.5631 126.905 7 8 327
1930177N11136 1930 26 WP MM NOT_NAMED 1930-06-29 09:00:00 NR 16.8924 126.680 main 414 407 __________P___ -1 16.8924 126.680 7 8 326
1930177N11136 1930 26 WP MM NOT_NAMED 1930-06-29 10:00:00 NR 17.0000 126.600 main 416 415 __________O___ -1 17.0000 126.600 7 8 323
1930177N11136 1930 26 WP MM NOT_NAMED 1930-06-29 12:00:00 NR 17.2133 126.430 main 415 395 __________P___ -1 17.2133 126.430 7 8 321
1930177N11136 1930 26 WP MM NOT_NAMED 1930-06-29 15:00:00 NR 17.5272 126.162 main 396 371 __________P___ -1 17.5272 126.162 7 8 319
1930177N11136 1930 26 WP MM NOT_NAMED 1930-06-29 18:00:00 NR 17.8285 125.866 main 371 338 __________P___ -1 17.8285 125.866 7 8 314
1930177N11136 1930 26 WP MM NOT_NAMED 1930-06-29 21:00:00 NR 18.1111 125.526 main 338 327 __________P___ -1 18.1111 125.526 7 9 310
1930177N11136 1930 26 WP MM NOT_NAMED 1930-06-29 22:00:00 NR 18.2000 125.400 main 327 295 __________O___ -1 18.2000 125.400 7 9 305
1930177N11136 1930 26 WP MM NOT_NAMED 1930-06-30 00:00:00 NR 18.3804 125.121 main 295 254 __________P___ -1 18.3804 125.121 7 10 302
1930177N11136 1930 26 WP MM NOT_NAMED 1930-06-30 03:00:00 NR 18.6323 124.658 main 254 205 __________P___ -1 18.6323 124.658 7 10 298
1930177N11136 1930 26 WP MM NOT_NAMED 1930-06-30 06:00:00 NR 18.8560 124.164 main 207 162 __________P___ -1 18.8560 124.164 7 10 294
1930177N11136 1930 26 WP MM NOT_NAMED 1930-06-30 09:00:00 NR 19.0455 123.664 main 162 148 __________P___ -1 19.0455 123.664 7 10 291
1930177N11136 1930 26 WP MM NOT_NAMED 1930-06-30 10:00:00 NR 19.1000 123.500 main 148 130 __________O___ -1 19.1000 123.500 7 9 290
1930177N11136 1930 26 WP MM NOT_NAMED 1930-06-30 12:00:00 NR 19.2027 123.197 main 130 109 __________P___ -1 19.2027 123.197 7 9 288
1930177N11136 1930 26 WP MM NOT_NAMED 1930-06-30 15:00:00 NR 19.3257 122.748 main 109 105 __________P___ -1 19.3257 122.748 7 9 284
1930177N11136 1930 26 WP MM NOT_NAMED 1930-06-30 18:00:00 NR 19.4169 122.302 main 111 111 __________P___ -1 19.4169 122.302 7 9 281
1930177N11136 1930 26 WP MM NOT_NAMED 1930-06-30 21:00:00 NR 19.4827 121.852 main 123 116 __________P___ -1 19.4827 121.852 7 9 278
1930177N11136 1930 26 WP MM NOT_NAMED 1930-06-30 22:00:00 NR 19.5000 121.700 main 116 111 __________O___ -1 19.5000 121.700 7 9 277
1930177N11136 1930 26 WP MM NOT_NAMED 1930-07-01 00:00:00 NR 19.5333 121.402 main 111 105 __________P___ -1 19.5333 121.402 7 9 275
1930177N11136 1930 26 WP MM NOT_NAMED 1930-07-01 03:00:00 NR 19.5646 120.949 main 111 111 __________P___ -1 19.5646 120.949 7 9 273
1930177N11136 1930 26 WP MM NOT_NAMED 1930-07-01 06:00:00 NR 19.5820 120.478 main 116 116 __________P___ -1 19.5820 120.478 7 9 272
1930177N11136 1930 26 WP MM NOT_NAMED 1930-07-01 09:00:00 NR 19.5950 119.976 main 139 146 __________P___ -1 19.5950 119.976 7 10 272
1930177N11136 1930 26 WP MM NOT_NAMED 1930-07-01 10:00:00 NR 19.6000 119.800 main 153 153 __________O___ -1 19.6000 119.800 2 12 268
1930177N11136 1930 26 WP MM NOT_NAMED 1930-07-01 12:00:00 NR 19.5706 119.360 main 184 191 __________P___ -1 19.5706 119.360 2 13 266
1930177N11136 1930 26 WP MM NOT_NAMED 1930-07-01 15:00:00 NR 19.5248 118.667 main 234 243 __________P___ -1 19.5248 118.667 2 13 268
1930177N11136 1930 26 WP MM NOT_NAMED 1930-07-01 18:00:00 NR 19.5264 118.022 main 299 299 __________P___ -1 19.5264 118.022 2 11 276
1930177N11136 1930 26 WP MM NOT_NAMED 1930-07-01 21:00:00 NR 19.6318 117.519 main 352 352 __________P___ -1 19.6318 117.519 2 9 287
1930177N11136 1930 26 WP MM NOT_NAMED 1930-07-01 22:00:00 NR 19.7000 117.400 main 366 345 __________O___ -1 19.7000 117.400 2 7 319
1930177N11136 1930 26 WP MM NOT_NAMED 1930-07-02 00:00:00 NR 19.9102 117.264 main 345 299 __________P___ -1 19.9102 117.264 2 8 345
1930177N11136 1930 26 WP MM NOT_NAMED 1930-07-02 03:00:00 NR 20.3401 117.223 main 299 238 __________P___ -1 20.3401 117.223 2 10 3
1930177N11136 1930 26 WP MM NOT_NAMED 1930-07-02 06:00:00 NR 20.8599 117.329 main 238 196 __________P___ -1 20.8599 117.329 2 11 15
1930177N11136 1930 26 WP MM NOT_NAMED 1930-07-02 09:00:00 NR 21.4159 117.525 main 196 184 __________P___ -1 21.4159 117.525 2 12 19
1930177N11136 1930 26 WP MM NOT_NAMED 1930-07-02 10:00:00 NR 21.6000 117.600 main 184 166 __________O___ -1 21.6000 117.600 2 11 21
1930177N11136 1930 26 WP MM NOT_NAMED 1930-07-02 12:00:00 NR 21.9174 117.734 main 166 150 __________P___ -1 21.9174 117.734 2 11 24
1930177N11136 1930 26 WP MM NOT_NAMED 1930-07-02 15:00:00 NR 22.3995 117.985 main 150 108 __________P___ -1 22.3995 117.985 2 11 26
1930177N11136 1930 26 WP MM NOT_NAMED 1930-07-02 18:00:00 NR 22.8968 118.262 main 114 90 __________P___ -1 22.8968 118.262 2 11 26
1930177N11136 1930 26 WP MM NOT_NAMED 1930-07-02 21:00:00 NR 23.4188 118.523 main 90 84 __________P___ -1 23.4188 118.523 2 12 24
1930177N11136 1930 26 WP MM NOT_NAMED 1930-07-02 22:00:00 NR 23.6000 118.600 main 84 56 __________O___ -1 23.6000 118.600 2 12 18
1930177N11136 1930 26 WP MM NOT_NAMED 1930-07-03 00:00:00 NR 23.9875 118.720 main 56 15 __________P___ -1 23.9875 118.720 2 12 14
1930177N11136 1930 26 WP MM NOT_NAMED 1930-07-03 03:00:00 NR 24.5944 118.868 main 20 0 __________P___ -1 24.5944 118.868 2 13 11
1930177N11136 1930 26 WP MM NOT_NAMED 1930-07-03 06:00:00 NR 25.2097 118.984 main 0 0 __________P___ -1 25.2097 118.984 2 12 9
1930177N11136 1930 26 WP MM NOT_NAMED 1930-07-03 09:00:00 NR 25.8085 119.075 main 0 0 __________P___ -1 25.8085 119.075 2 12 8
1930177N11136 1930 26 WP MM NOT_NAMED 1930-07-03 10:00:00 NR 26.0000 119.100 main 0 0 __________O___ -1 26.0000 119.100 7 11 8
1930177N11136 1930 26 WP MM NOT_NAMED 1930-07-03 12:00:00 NR 26.3673 119.145 main 0 0 __________P___ -1 26.3673 119.145 7 11 6
1930177N11136 1930 26 WP MM NOT_NAMED 1930-07-03 15:00:00 NR 26.8847 119.201 main 0 0 __________P___ -1 26.8847 119.201 7 10 5
1930177N11136 1930 26 WP MM NOT_NAMED 1930-07-03 18:00:00 NR 27.3728 119.247 main 0 0 __________P___ -1 27.3728 119.247 7 10 4
1930177N11136 1930 26 WP MM NOT_NAMED 1930-07-03 21:00:00 NR 27.8444 119.287 main 0 0 __________P___ -1 27.8444 119.287 7 9 3
1930177N11136 1930 26 WP MM NOT_NAMED 1930-07-03 22:00:00 NR 28.0000 119.300 main 0 __________O___ -1 28.0000 119.300 7 9 0

デジタル台風データ・検索

IBTrACS Databaseについて

本データベースは、米国NOAAが公開する1842年以降の世界の熱帯低気圧のベストトラックデータアーカイブInternational Best Track Archive for Climate Stewardship (IBTrACS)を、ウェブで閲覧しやすい形式に変換したものです。

最終更新日:2021-11-26